Time;durP1;ratioP1;P1;durP2;ratioP2;P2;SDS_P1;SDS_P2;PMS_P1;PMS_P2;Temp;Humidity;BMP_temperature;BMP_pressure;BME280_temperature;BME280_humidity;BME280_pressure;Samples;Min_cycle;Max_cycle;Signal;HPM_P1;HPM_P2
2021/05/20 00:01:30;;;;;;;34.25;15.07;;;;;;;4.99;100.00;102065.91;5237042;28;20025;-86
2021/05/20 00:04:00;;;;;;;27.80;13.07;;;;;;;4.99;100.00;102070.38;5233942;28;20043;-84
2021/05/20 00:06:31;;;;;;;31.23;14.18;;;;;;;5.01;100.00;102079.09;5224815;28;20025;-84
2021/05/20 00:09:04;;;;;;;36.20;14.75;;;;;;;4.97;100.00;102069.59;5225037;28;20032;-84
2021/05/20 00:11:34;;;;;;;31.08;13.90;;;;;;;4.92;100.00;102064.63;5225060;28;20017;-84
2021/05/20 00:14:05;;;;;;;31.55;12.93;;;;;;;4.88;100.00;102073.75;5225127;28;20029;-84
2021/05/20 00:16:35;;;;;;;27.48;13.50;;;;;;;4.84;100.00;102074.88;5225652;28;20512;-84
2021/05/20 00:19:07;;;;;;;32.65;14.65;;;;;;;4.78;100.00;102072.63;5227931;28;20045;-84
2021/05/20 00:21:37;;;;;;;33.78;12.80;;;;;;;4.75;100.00;102068.34;5229102;28;20037;-84
2021/05/20 00:24:08;;;;;;;39.05;16.58;;;;;;;4.73;100.00;102070.25;5228786;28;20106;-84
2021/05/20 00:26:39;;;;;;;33.10;15.35;;;;;;;4.72;100.00;102078.31;5228595;28;20029;-84
2021/05/20 00:29:09;;;;;;;35.45;15.60;;;;;;;4.72;100.00;102080.97;5228193;28;20100;-84
2021/05/20 00:31:40;;;;;;;25.92;12.00;;;;;;;4.70;100.00;102083.72;5228330;28;20496;-84
2021/05/20 00:34:10;;;;;;;32.40;13.65;;;;;;;4.66;100.00;102083.06;5228712;28;20040;-84
2021/05/20 00:36:41;;;;;;;32.00;13.73;;;;;;;4.58;100.00;102074.75;5228837;28;20104;-84
2021/05/20 00:39:11;;;;;;;36.25;13.52;;;;;;;4.57;100.00;102075.72;5229214;28;20039;-84
2021/05/20 00:41:41;;;;;;;31.48;14.80;;;;;;;4.56;100.00;102073.97;5228341;28;20068;-84
2021/05/20 00:44:12;;;;;;;36.83;15.63;;;;;;;4.52;100.00;102076.91;5227897;28;20510;-84
2021/05/20 00:46:42;;;;;;;38.67;15.05;;;;;;;4.45;100.00;102079.13;5228242;28;20009;-84
2021/05/20 00:49:13;;;;;;;25.80;12.23;;;;;;;4.48;100.00;102080.75;5228783;28;20047;-84
2021/05/20 00:51:45;;;;;;;22.40;10.80;;;;;;;4.50;100.00;102073.53;5229725;28;20492;-84
2021/05/20 00:54:16;;;;;;;19.25;8.93;;;;;;;4.48;100.00;102078.94;5230193;28;20032;-84
2021/05/20 00:56:47;;;;;;;26.65;12.07;;;;;;;4.45;100.00;102078.28;5230166;28;20499;-84
2021/05/20 00:59:17;;;;;;;28.80;12.70;;;;;;;4.39;100.00;102090.16;5227901;28;20035;-84
2021/05/20 01:01:48;;;;;;;26.63;12.15;;;;;;;4.34;100.00;102089.56;5227731;28;20029;-84
2021/05/20 01:04:18;;;;;;;23.65;11.68;;;;;;;4.28;100.00;102087.31;5243278;28;20028;-84
2021/05/20 01:06:49;;;;;;;34.75;14.88;;;;;;;4.21;100.00;102100.09;5227423;28;20021;-84
2021/05/20 01:09:19;;;;;;;25.88;12.30;;;;;;;4.20;100.00;102093.06;5227263;28;20395;-84
2021/05/20 01:11:50;;;;;;;38.85;16.17;;;;;;;4.26;100.00;102087.38;5227204;28;20023;-84
2021/05/20 01:14:20;;;;;;;45.00;17.02;;;;;;;4.29;100.00;102086.34;5227150;28;20017;-84
2021/05/20 01:16:51;;;;;;;33.60;13.13;;;;;;;4.28;100.00;102089.97;5227494;28;20025;-84
2021/05/20 01:19:21;;;;;;;109.63;17.70;;;;;;;4.16;100.00;102096.88;5226666;28;20403;-84
2021/05/20 01:21:52;;;;;;;33.38;14.55;;;;;;;4.07;100.00;102094.81;5227137;28;20032;-84
2021/05/20 01:24:22;;;;;;;47.03;21.55;;;;;;;4.05;100.00;102097.53;5227002;28;20042;-84
2021/05/20 01:26:54;;;;;;;66.00;26.98;;;;;;;4.27;100.00;102089.13;5227510;28;20029;-84
2021/05/20 01:29:24;;;;;;;129.68;47.03;;;;;;;4.90;100.00;102106.38;5226387;28;20099;-84
2021/05/20 01:31:55;;;;;;;108.07;34.92;;;;;;;5.36;100.00;102106.88;5226688;28;20109;-84
2021/05/20 01:34:26;;;;;;;69.90;25.98;;;;;;;5.29;100.00;102102.09;5226729;28;20063;-84
2021/05/20 01:36:57;;;;;;;42.70;16.33;;;;;;;5.08;100.00;102107.88;5226422;28;20033;-84
2021/05/20 01:39:28;;;;;;;28.77;13.13;;;;;;;4.84;100.00;102120.94;5226844;28;20024;-84
2021/05/20 01:41:58;;;;;;;40.63;15.25;;;;;;;4.75;100.00;102113.53;5226647;28;20056;-84
2021/05/20 01:44:29;;;;;;;1999.90;391.45;;;;;;;4.80;100.00;102116.75;5226340;28;20059;-84
2021/05/20 01:47:00;;;;;;;75.28;29.08;;;;;;;5.64;100.00;102121.03;5226368;28;20448;-84
2021/05/20 01:49:30;;;;;;;60.13;23.35;;;;;;;5.52;100.00;102132.47;5226359;28;20078;-84
2021/05/20 01:52:01;;;;;;;42.50;16.23;;;;;;;5.13;100.00;102127.03;5226361;28;20044;-84
2021/05/20 01:54:32;;;;;;;43.90;16.45;;;;;;;4.90;100.00;102122.34;5226904;28;20032;-84
2021/05/20 01:57:04;;;;;;;41.60;17.58;;;;;;;4.83;100.00;102127.22;5219202;28;20021;-84
2021/05/20 01:59:37;;;;;;;1999.90;558.35;;;;;;;5.10;100.00;102113.94;5227356;28;20056;-84
2021/05/20 02:02:08;;;;;;;327.85;60.08;;;;;;;5.44;100.00;102115.22;5227422;28;20029;-84
2021/05/20 02:04:48;;;;;;;52.80;20.80;;;;;;;5.33;100.00;102122.22;5226921;28;20031;-84
2021/05/20 02:07:19;;;;;;;45.03;18.27;;;;;;;5.06;100.00;102120.41;5226075;28;20020;-84
2021/05/20 02:09:49;;;;;;;1906.05;280.30;;;;;;;5.02;100.00;102113.59;5226384;28;20432;-84
2021/05/20 02:12:20;;;;;;;159.68;47.40;;;;;;;5.41;100.00;102118.06;5226503;28;20112;-84
2021/05/20 02:14:50;;;;;;;1999.90;316.30;;;;;;;5.37;100.00;102121.03;5226949;28;20025;-84
2021/05/20 02:17:21;;;;;;;35.05;15.25;;;;;;;4.92;100.00;102115.13;5227335;28;20490;-84
2021/05/20 02:19:51;;;;;;;33.00;15.38;;;;;;;4.69;100.00;102119.25;5226311;28;20029;-84
2021/05/20 02:22:22;;;;;;;33.65;13.07;;;;;;;4.58;100.00;102121.75;5227086;28;20021;-84
2021/05/20 02:24:52;;;;;;;37.15;15.27;;;;;;;4.46;100.00;102112.72;5227188;28;20092;-84
2021/05/20 02:27:22;;;;;;;41.30;16.55;;;;;;;4.37;100.00;102116.81;5227065;28;20021;-84
2021/05/20 02:29:53;;;;;;;37.05;14.68;;;;;;;4.29;100.00;102115.56;5226778;28;20035;-84
2021/05/20 02:32:24;;;;;;;42.25;17.02;;;;;;;4.21;100.00;102110.72;5226001;28;20035;-84
2021/05/20 02:34:54;;;;;;;37.75;15.85;;;;;;;4.19;100.00;102111.78;5225175;28;20112;-84
2021/05/20 02:37:25;;;;;;;33.72;13.60;;;;;;;4.13;100.00;102111.22;5226752;28;20083;-83
2021/05/20 02:39:55;;;;;;;1999.90;405.63;;;;;;;4.21;100.00;102116.03;5227329;28;20021;-84
2021/05/20 02:42:26;;;;;;;76.30;26.58;;;;;;;4.92;100.00;102109.81;5227281;28;20055;-84
2021/05/20 02:44:56;;;;;;;54.50;23.20;;;;;;;4.86;100.00;102112.84;5227217;28;20242;-84
2021/05/20 02:47:27;;;;;;;44.95;19.23;;;;;;;4.68;100.00;102104.25;5227694;28;20524;-84
2021/05/20 02:49:57;;;;;;;41.65;18.60;;;;;;;4.71;100.00;102109.38;5227117;28;20082;-84
2021/05/20 02:52:29;;;;;;;41.15;16.75;;;;;;;4.56;100.00;102105.00;5227344;28;20387;-84
2021/05/20 02:55:02;;;;;;;33.38;14.27;;;;;;;4.40;100.00;102094.50;5227286;28;20052;-84
2021/05/20 02:57:34;;;;;;;35.20;14.63;;;;;;;4.29;100.00;102100.47;5226981;28;20024;-84
2021/05/20 03:00:06;;;;;;;37.97;18.52;;;;;;;4.60;100.00;102101.22;5225706;28;20549;-84
2021/05/20 03:02:37;;;;;;;34.97;14.18;;;;;;;4.49;100.00;102112.53;5225579;28;20029;-84
2021/05/20 03:05:08;;;;;;;1999.90;447.65;;;;;;;4.58;100.00;102105.78;5225614;28;20048;-84
2021/05/20 03:07:38;;;;;;;56.63;20.00;;;;;;;4.85;100.00;102106.69;5225434;28;20488;-84
2021/05/20 03:10:09;;;;;;;46.28;18.42;;;;;;;4.72;100.00;102102.22;5225226;28;20060;-84
2021/05/20 03:12:41;;;;;;;39.15;16.98;;;;;;;4.44;100.00;102095.16;5225494;28;20039;-84
2021/05/20 03:15:11;;;;;;;36.83;16.42;;;;;;;4.29;100.00;102095.16;5226178;28;20025;-84
2021/05/20 03:17:42;;;;;;;48.67;17.88;;;;;;;4.14;100.00;102112.06;5226850;28;20078;-84
2021/05/20 03:20:13;;;;;;;1999.90;644.50;;;;;;;4.15;100.00;102108.44;5226436;28;20440;-84
2021/05/20 03:22:46;;;;;;;142.98;42.70;;;;;;;4.36;100.00;102103.59;5225790;28;20059;-84
2021/05/20 03:25:18;;;;;;;98.78;31.13;;;;;;;4.79;100.00;102106.22;5225126;28;20021;-84
2021/05/20 03:27:48;;;;;;;52.30;23.15;;;;;;;4.66;100.00;102109.66;5224081;28;20099;-84
2021/05/20 03:30:20;;;;;;;38.38;16.67;;;;;;;4.51;100.00;102105.31;5225191;28;20083;-84
2021/05/20 03:32:50;;;;;;;36.65;17.20;;;;;;;4.36;100.00;102103.59;5225619;28;20059;-84
2021/05/20 03:35:21;;;;;;;1999.90;654.40;;;;;;;4.73;100.00;102104.81;5223235;28;20106;-84
2021/05/20 03:37:51;;;;;;;295.48;73.72;;;;;;;5.29;100.00;102110.91;5225406;28;20043;-84
2021/05/20 03:40:22;;;;;;;1999.90;348.70;;;;;;;5.16;100.00;102110.00;5224871;28;20029;-84
2021/05/20 03:42:54;;;;;;;44.85;17.45;;;;;;;4.83;100.00;102100.63;5225099;28;20029;-84
2021/05/20 03:45:25;;;;;;;32.53;14.82;;;;;;;4.59;100.00;102100.38;5224691;28;20476;-84
2021/05/20 03:47:55;;;;;;;745.50;75.30;;;;;;;4.52;100.00;102104.38;5225038;28;20033;-84
2021/05/20 03:50:26;;;;;;;1999.90;413.13;;;;;;;4.51;100.00;102102.66;5224693;28;20112;-84
2021/05/20 03:52:59;;;;;;;50.28;21.02;;;;;;;4.44;100.00;102097.81;5227644;28;20043;-84
2021/05/20 03:55:29;;;;;;;34.50;14.05;;;;;;;4.26;100.00;102102.47;5228787;28;20025;-84
2021/05/20 03:58:00;;;;;;;37.97;14.55;;;;;;;4.22;100.00;102111.56;5229457;28;20031;-84
2021/05/20 04:00:30;;;;;;;756.92;153.48;;;;;;;4.36;100.00;102096.50;5230182;28;20527;-84
2021/05/20 04:03:00;;;;;;;52.20;19.92;;;;;;;4.35;100.00;102097.44;5238397;28;20052;-84
2021/05/20 04:05:31;;;;;;;86.57;15.75;;;;;;;4.22;100.00;102090.31;5229540;28;20400;-84
2021/05/20 04:08:01;;;;;;;66.30;14.38;;;;;;;4.21;100.00;102100.09;5230311;28;20384;-84
2021/05/20 04:10:32;;;;;;;77.53;21.08;;;;;;;4.19;100.00;102101.16;5229896;28;20097;-84
2021/05/20 04:13:02;;;;;;;79.40;25.83;;;;;;;4.18;100.00;102094.13;5230485;28;20029;-85
2021/05/20 04:15:33;;;;;;;55.05;23.65;;;;;;;4.12;100.00;102101.53;5230181;28;20029;-83
2021/05/20 04:18:04;;;;;;;317.40;40.53;;;;;;;4.09;100.00;102100.84;5230690;28;20025;-84
2021/05/20 04:20:34;;;;;;;1999.90;797.15;;;;;;;4.26;100.00;102095.34;5230169;28;20134;-84
2021/05/20 04:23:05;;;;;;;1999.90;999.90;;;;;;;5.23;100.00;102097.19;5228907;28;20071;-84
2021/05/20 04:25:35;;;;;;;154.60;43.30;;;;;;;5.61;100.00;102090.13;5230466;28;20017;-84
2021/05/20 04:28:05;;;;;;;67.50;23.85;;;;;;;5.20;100.00;102098.22;5230277;28;20029;-84
2021/05/20 04:30:36;;;;;;;50.30;19.33;;;;;;;4.98;100.00;102089.94;5230371;28;20033;-84
2021/05/20 04:33:08;;;;;;;45.78;18.77;;;;;;;4.91;100.00;102092.97;5230641;28;20020;-83
2021/05/20 04:35:39;;;;;;;54.05;21.15;;;;;;;4.94;100.00;102091.94;5230153;28;20029;-84
2021/05/20 04:38:10;;;;;;;52.22;20.05;;;;;;;4.94;100.00;102087.47;5230554;28;20071;-84
2021/05/20 04:40:41;;;;;;;46.22;19.75;;;;;;;4.99;100.00;102094.31;5230777;28;20044;-84
2021/05/20 04:43:11;;;;;;;40.30;17.23;;;;;;;4.99;100.00;102096.97;5230623;28;20060;-84
2021/05/20 04:45:44;;;;;;;46.67;18.40;;;;;;;4.98;100.00;102092.59;5229994;28;20044;-84
2021/05/20 04:48:15;;;;;;;44.38;18.17;;;;;;;5.04;100.00;102090.41;5230848;28;20079;-84
2021/05/20 04:50:45;;;;;;;45.65;20.02;;;;;;;5.32;100.00;102096.53;5229775;28;20025;-84
2021/05/20 04:53:16;;;;;;;46.35;19.92;;;;;;;5.45;100.00;102094.78;5229725;28;20029;-84
2021/05/20 04:55:46;;;;;;;1799.85;184.68;;;;;;;5.82;100.00;102106.44;5229894;28;20021;-84
2021/05/20 04:58:17;;;;;;;1999.90;469.38;;;;;;;5.97;100.00;102113.44;5230652;28;20115;-84
2021/05/20 05:00:48;;;;;;;1999.90;868.88;;;;;;;6.49;100.00;102108.94;5230055;28;20032;-84
2021/05/20 05:03:18;;;;;;;80.47;27.60;;;;;;;6.73;100.00;102117.00;5225889;28;20017;-84
2021/05/20 05:05:49;;;;;;;58.97;22.30;;;;;;;6.51;100.00;102117.66;5227302;28;20503;-84
2021/05/20 05:08:20;;;;;;;53.03;21.58;;;;;;;6.57;100.00;102111.91;5227634;28;20025;-84
2021/05/20 05:10:50;;;;;;;1999.90;336.85;;;;;;;6.73;100.00;102111.69;5226511;28;20032;-84
2021/05/20 05:13:21;;;;;;;49.58;21.40;;;;;;;6.78;100.00;102109.53;5226968;28;20416;-84
2021/05/20 05:15:54;;;;;;;51.30;22.10;;;;;;;6.95;100.00;102111.81;5226846;28;20025;-84
2021/05/20 05:18:24;;;;;;;56.28;21.88;;;;;;;6.97;100.00;102107.19;5226806;28;20083;-84
2021/05/20 05:20:55;;;;;;;55.90;23.52;;;;;;;7.22;100.00;102116.94;5226363;28;20037;-84
2021/05/20 05:23:28;;;;;;;58.08;22.95;;;;;;;7.72;100.00;102117.63;5226794;28;20680;-84
2021/05/20 05:25:58;;;;;;;45.55;21.02;;;;;;;8.89;100.00;102117.38;5226815;28;20438;-83
2021/05/20 05:28:29;;;;;;;45.40;19.83;;;;;;;10.05;100.00;102121.03;5226843;28;20028;-84
2021/05/20 05:30:59;;;;;;;37.92;20.33;;;;;;;10.84;100.00;102125.78;5226395;28;20044;-84
2021/05/20 05:33:30;;;;;;;36.92;18.00;;;;;;;11.74;100.00;102116.69;5227501;28;20104;-85
2021/05/20 05:36:00;;;;;;;34.03;17.13;;;;;;;12.53;100.00;102116.41;5226231;28;20492;-83
2021/05/20 05:38:30;;;;;;;117.68;23.70;;;;;;;13.00;100.00;102118.97;5226872;28;20025;-84
2021/05/20 05:41:02;;;;;;;29.75;16.52;;;;;;;13.60;100.00;102109.34;5226301;28;20055;-85
2021/05/20 05:43:32;;;;;;;28.20;17.58;;;;;;;13.76;100.00;102113.19;5226204;28;20476;-85
2021/05/20 05:46:03;;;;;;;30.30;16.63;;;;;;;14.39;100.00;102108.38;5226071;28;20025;-85
2021/05/20 05:48:33;;;;;;;34.78;18.40;;;;;;;14.49;100.00;102109.13;5224372;28;20018;-86
2021/05/20 05:51:08;;;;;;;27.30;16.73;;;;;;;15.27;100.00;102099.94;5226354;28;20215;-86
2021/05/20 05:53:39;;;;;;;27.50;17.10;;;;;;;14.92;100.00;102110.00;5226211;28;20035;-84
2021/05/20 05:56:09;;;;;;;26.15;16.67;;;;;;;14.96;100.00;102116.78;5226017;28;20477;-85
2021/05/20 05:58:40;;;;;;;31.30;16.67;;;;;;;15.49;100.00;102120.91;5225455;28;20404;-85
2021/05/20 06:01:10;;;;;;;28.20;16.90;;;;;;;15.64;100.00;102113.00;5226141;28;20021;-85
2021/05/20 06:03:41;;;;;;;27.33;16.48;;;;;;;16.63;100.00;102122.66;5225861;28;20017;-85
2021/05/20 06:06:11;;;;;;;28.15;17.05;;;;;;;16.11;100.00;102131.22;5225841;28;20070;-84
2021/05/20 06:08:42;;;;;;;28.52;16.02;;;;;;;16.53;100.00;102125.56;5226064;28;20052;-85
2021/05/20 06:11:12;;;;;;;30.63;17.98;;;;;;;16.32;100.00;102125.28;5224952;28;20024;-85
2021/05/20 06:13:43;;;;;;;31.70;17.08;;;;;;;16.83;100.00;102125.81;5225882;28;20101;-85
2021/05/20 06:16:13;;;;;;;30.95;17.73;;;;;;;16.58;100.00;102125.03;5225407;28;20028;-84
2021/05/20 06:18:44;;;;;;;29.85;17.92;;;;;;;16.44;100.00;102123.91;5225879;28;20033;-85
2021/05/20 06:21:14;;;;;;;28.98;18.20;;;;;;;16.28;100.00;102126.66;5225238;28;20025;-85
2021/05/20 06:23:45;;;;;;;32.92;18.52;;;;;;;17.12;100.00;102132.44;5225982;28;20079;-85
2021/05/20 06:26:15;;;;;;;28.55;18.33;;;;;;;16.43;100.00;102127.63;5225548;28;20445;-84
2021/05/20 06:28:46;;;;;;;31.75;19.35;;;;;;;16.01;100.00;102127.88;5225998;28;20025;-85
2021/05/20 06:31:16;;;;;;;30.65;19.52;;;;;;;15.82;100.00;102126.38;5238144;28;20036;-84
2021/05/20 06:33:47;;;;;;;34.08;20.58;;;;;;;15.73;100.00;102125.53;5232626;28;20032;-84
2021/05/20 06:36:19;;;;;;;38.33;20.40;;;;;;;15.91;100.00;102130.75;5224685;28;20455;-84
2021/05/20 06:38:49;;;;;;;36.17;19.92;;;;;;;15.23;100.00;102126.44;5225539;28;20051;-84
2021/05/20 06:41:20;;;;;;;36.58;23.27;;;;;;;14.69;100.00;102128.63;5225391;28;20025;-84
2021/05/20 06:43:51;;;;;;;36.30;21.75;;;;;;;14.39;100.00;102139.94;5225366;28;20032;-86
2021/05/20 06:46:21;;;;;;;35.05;20.75;;;;;;;14.56;100.00;102130.97;5221253;28;20025;-86
2021/05/20 06:48:54;;;;;;;41.95;21.55;;;;;;;14.29;100.00;102131.94;5219078;28;20502;-85
2021/05/20 06:51:25;;;;;;;42.85;23.23;;;;;;;13.96;100.00;102129.03;5225044;28;20029;-86
2021/05/20 06:53:56;;;;;;;39.45;23.30;;;;;;;13.91;100.00;102125.13;5216715;28;20021;-87
2021/05/20 06:56:29;;;;;;;40.17;23.38;;;;;;;14.07;100.00;102121.69;5217192;28;20392;-85
2021/05/20 07:01:48;;;;;;;41.15;21.35;;;;;;;13.60;100.00;102125.50;5224220;28;20028;-85
2021/05/20 07:04:18;;;;;;;36.13;21.67;;;;;;;13.68;100.00;102122.91;5224500;28;20025;-85
2021/05/20 07:06:49;;;;;;;34.67;19.67;;;;;;;13.61;100.00;102124.53;5224260;28;20033;-84
2021/05/20 07:09:19;;;;;;;36.58;19.48;;;;;;;13.51;100.00;102118.38;5222466;28;20017;-84
2021/05/20 07:11:50;;;;;;;34.17;19.75;;;;;;;13.54;100.00;102109.97;5224299;28;20029;-85
2021/05/20 07:14:20;;;;;;;31.80;19.95;;;;;;;13.87;100.00;102112.94;5224050;28;20025;-85
2021/05/20 07:16:51;;;;;;;36.88;21.35;;;;;;;13.63;100.00;102117.13;5223981;28;20059;-85
2021/05/20 07:19:22;;;;;;;38.15;19.73;;;;;;;13.95;100.00;102113.81;5222545;28;20029;-86
2021/05/20 07:21:52;;;;;;;32.85;18.98;;;;;;;14.22;100.00;102110.16;5215396;28;20500;-85
2021/05/20 07:24:23;;;;;;;30.60;18.42;;;;;;;14.01;100.00;102112.38;5213217;28;20025;-86
2021/05/20 07:26:54;;;;;;;34.55;19.35;;;;;;;13.95;100.00;102115.69;5215597;28;20040;-86
2021/05/20 07:29:24;;;;;;;41.30;21.42;;;;;;;14.04;100.00;102103.09;5227949;28;20511;-85
2021/05/20 07:31:55;;;;;;;36.95;20.88;;;;;;;13.73;100.00;102104.41;5228345;28;20036;-85
2021/05/20 07:34:25;;;;;;;36.53;19.58;;;;;;;13.90;100.00;102109.91;5227650;28;20025;-87
2021/05/20 07:36:56;;;;;;;32.08;18.52;;;;;;;13.95;100.00;102107.59;5213292;28;20018;-85
2021/05/20 07:39:26;;;;;;;33.92;19.95;;;;;;;14.08;100.00;102110.72;5227615;28;20056;-85
2021/05/20 07:41:57;;;;;;;31.70;18.65;;;;;;;14.36;100.00;102107.88;5228400;28;20025;-85
2021/05/20 07:44:27;;;;;;;34.08;17.88;;;;;;;14.47;100.00;102104.88;5227637;28;20108;-84
2021/05/20 07:46:58;;;;;;;36.33;17.40;;;;;;;14.60;100.00;102108.00;5227313;28;20036;-85
2021/05/20 07:49:28;;;;;;;28.65;17.50;;;;;;;14.64;100.00;102111.22;5227534;28;20025;-85
2021/05/20 07:51:59;;;;;;;33.13;18.48;;;;;;;14.76;100.00;102116.19;5227790;28;20068;-85
2021/05/20 07:54:30;;;;;;;30.65;16.95;;;;;;;14.73;100.00;102118.34;5227732;28;20025;-84
2021/05/20 07:57:01;;;;;;;25.50;15.57;;;;;;;15.07;100.00;102109.38;5220696;28;20348;-85
2021/05/20 07:59:32;;;;;;;27.15;16.65;;;;;;;15.02;100.00;102121.50;5225984;28;20021;-85
2021/05/20 08:02:15;;;;;;;22.83;13.52;;;;;;;15.11;100.00;102111.56;5221254;28;20036;-86
2021/05/20 08:04:47;;;;;;;23.17;13.02;;;;;;;15.18;100.00;102117.16;5227752;28;20111;-85
2021/05/20 08:10:09;;;;;;;18.67;12.75;;;;;;;15.38;100.00;102102.31;5226799;28;20304;-85
2021/05/20 08:12:39;;;;;;;18.25;10.00;;;;;;;16.02;100.00;102100.66;5227652;28;20033;-85
2021/05/20 08:15:11;;;;;;;20.92;11.52;;;;;;;16.25;100.00;102083.66;5227454;28;20403;-85
2021/05/20 08:17:42;;;;;;;15.05;9.05;;;;;;;16.44;100.00;102099.53;5227434;28;20028;-85
2021/05/20 08:20:13;;;;;;;17.70;10.07;;;;;;;16.50;100.00;102092.56;5227000;28;20013;-85
2021/05/20 08:22:43;;;;;;;15.38;9.55;;;;;;;16.57;100.00;102080.84;5227914;28;20032;-85
2021/05/20 08:25:13;;;;;;;15.45;9.38;;;;;;;16.53;100.00;102089.50;5226902;28;20028;-85
2021/05/20 08:27:44;;;;;;;14.18;9.10;;;;;;;16.45;100.00;102078.69;5226939;28;20033;-86
2021/05/20 08:30:17;;;;;;;14.57;8.75;;;;;;;16.56;100.00;102070.16;5227035;28;20055;-85
2021/05/20 08:32:48;;;;;;;13.15;7.97;;;;;;;16.83;98.11;102075.16;5227234;28;20330;-86
2021/05/20 08:35:19;;;;;;;14.55;9.30;;;;;;;16.63;100.00;102075.75;5226540;28;20029;-86
2021/05/20 08:37:50;;;;;;;13.13;7.43;;;;;;;16.60;100.00;102068.81;5213295;28;20047;-85
2021/05/20 08:40:21;;;;;;;14.65;6.60;;;;;;;16.72;91.72;102064.72;5225550;28;20025;-86
2021/05/20 08:42:51;;;;;;;11.15;6.93;;;;;;;16.71;93.72;102067.56;5226913;28;20025;-86
2021/05/20 08:45:26;;;;;;;15.48;6.18;;;;;;;16.82;91.78;102059.09;5226232;28;20025;-85
2021/05/20 08:47:57;;;;;;;11.70;6.47;;;;;;;16.68;97.36;102059.81;5226748;28;20029;-86
2021/05/20 08:50:30;;;;;;;16.15;7.75;;;;;;;16.69;91.83;102058.78;5224781;28;20058;-86
2021/05/20 08:53:01;;;;;;;14.35;7.35;;;;;;;16.92;100.00;102057.00;5227230;28;20040;-84
2021/05/20 08:55:34;;;;;;;12.85;7.45;;;;;;;17.10;92.26;102048.56;5226251;28;20025;-85
2021/05/20 08:58:08;;;;;;;13.50;6.50;;;;;;;17.01;82.67;102036.09;5225600;28;20036;-85
2021/05/20 09:00:40;;;;;;;11.90;7.35;;;;;;;17.16;97.11;102050.56;5226901;28;20079;-86
2021/05/20 09:03:12;;;;;;;13.73;7.10;;;;;;;17.11;87.88;102035.84;5227243;28;20063;-85
2021/05/20 09:05:43;;;;;;;11.43;6.63;;;;;;;16.92;84.14;102046.16;5226797;28;20202;-86
2021/05/20 09:08:16;;;;;;;11.13;6.03;;;;;;;17.00;88.35;102034.41;5238382;28;20369;-86
2021/05/20 09:10:48;;;;;;;10.55;6.35;;;;;;;17.12;87.03;102037.53;5227389;28;20104;-85
2021/05/20 09:13:19;;;;;;;14.13;7.05;;;;;;;17.50;94.09;102038.44;5228591;28;20028;-86
2021/05/20 09:15:52;;;;;;;9.88;5.03;;;;;;;17.52;84.93;102034.53;5229832;28;20025;-87
2021/05/20 09:18:26;;;;;;;10.13;5.10;;;;;;;17.44;78.01;102033.75;5233752;28;20025;-85
2021/05/20 09:20:58;;;;;;;12.00;5.15;;;;;;;17.23;77.56;102034.44;5229568;28;20025;-87
2021/05/20 09:23:31;;;;;;;9.27;5.38;;;;;;;17.15;88.17;102035.31;5228567;28;20108;-86
2021/05/20 09:26:05;;;;;;;12.25;6.05;;;;;;;17.00;84.98;102032.53;5227161;28;20021;-86
2021/05/20 09:28:41;;;;;;;8.33;5.17;;;;;;;17.00;79.94;102037.97;5232063;28;20028;-86
2021/05/20 09:31:14;;;;;;;8.20;4.60;;;;;;;16.83;79.18;102033.69;5229831;28;20307;-86
2021/05/20 09:33:52;;;;;;;20.27;4.93;;;;;;;16.74;83.54;102032.03;5229051;28;20033;-84
2021/05/20 09:36:23;;;;;;;9.10;5.00;;;;;;;16.65;96.72;102019.50;5218980;28;20075;-86
2021/05/20 09:39:12;;;;;;;10.52;4.68;;;;;;;17.11;88.85;102016.88;5226062;28;20107;-86
2021/05/20 09:41:42;;;;;;;8.88;4.90;;;;;;;17.53;90.48;102008.22;5230228;28;20064;-86
2021/05/20 09:44:29;;;;;;;9.60;4.85;;;;;;;17.81;80.65;101998.47;5226364;28;20416;-86
2021/05/20 09:47:01;;;;;;;7.90;4.60;;;;;;;18.05;71.42;102001.94;5226380;28;20033;-87
2021/05/20 09:49:32;;;;;;;12.20;6.28;;;;;;;18.09;74.97;101989.69;5225324;28;20031;-86
2021/05/20 09:52:21;;;;;;;9.45;5.57;;;;;;;18.06;81.50;101993.59;5225664;28;20029;-87
2021/05/20 09:54:52;;;;;;;6.05;3.78;;;;;;;18.12;77.27;101983.84;5226123;28;20029;-86
2021/05/20 09:57:24;;;;;;;8.68;5.00;;;;;;;18.30;79.81;101988.91;5219521;28;20067;-86
2021/05/20 09:59:59;;;;;;;6.15;4.10;;;;;;;18.44;77.39;101979.88;5225341;28;20037;-88
2021/05/20 10:02:31;;;;;;;8.57;4.40;;;;;;;18.55;73.98;101981.25;5224892;28;20031;-87
2021/05/20 10:05:23;;;;;;;9.60;4.47;;;;;;;18.57;68.22;101982.75;5225821;28;20071;-87
2021/05/20 10:07:55;;;;;;;9.85;4.15;;;;;;;18.37;78.28;101979.81;5223925;28;20028;-88
2021/05/20 10:10:25;;;;;;;11.57;4.68;;;;;;;18.24;74.28;101978.81;5229095;28;20017;-87
2021/05/20 10:12:56;;;;;;;7.93;4.32;;;;;;;18.07;76.65;101972.72;5225325;28;20103;-87
2021/05/20 10:15:26;;;;;;;7.97;4.72;;;;;;;18.31;73.10;101972.41;5225847;28;20017;-87
2021/05/20 10:17:57;;;;;;;9.25;4.13;;;;;;;18.10;72.54;101966.91;5224955;28;20082;-86
2021/05/20 10:20:28;;;;;;;13.77;4.70;;;;;;;17.89;73.76;101973.09;5226907;28;20029;-86
2021/05/20 10:23:00;;;;;;;6.53;4.45;;;;;;;18.05;69.35;101958.50;5227132;28;20031;-86
2021/05/20 10:25:31;;;;;;;8.23;4.07;;;;;;;17.76;71.19;101968.31;5224893;28;20075;-87
2021/05/20 10:28:02;;;;;;;8.85;4.05;;;;;;;18.07;75.58;101960.00;5240870;28;20033;-86
2021/05/20 10:30:34;;;;;;;8.65;4.05;;;;;;;18.00;73.44;101952.78;5240462;28;20056;-86
2021/05/20 10:33:05;;;;;;;7.05;3.97;;;;;;;18.03;72.97;101945.13;5223963;28;20028;-86
2021/05/20 10:35:38;;;;;;;5.70;3.78;;;;;;;18.22;79.98;101959.97;5223669;28;20029;-86
2021/05/20 10:38:10;;;;;;;6.35;4.00;;;;;;;18.57;72.27;101950.13;5224409;28;20036;-86
2021/05/20 10:40:41;;;;;;;9.75;3.80;;;;;;;18.47;69.95;101948.75;5223145;28;20476;-87
2021/05/20 10:43:14;;;;;;;11.95;4.72;;;;;;;18.64;74.27;101947.50;5225089;28;20067;-87
2021/05/20 10:45:59;;;;;;;7.32;4.03;;;;;;;18.77;68.63;101958.53;5224885;28;20092;-87
2021/05/20 10:48:31;;;;;;;;;;;;;;;18.46;65.79;101960.66;5225159;28;20608;-86
2021/05/20 10:51:11;;;;;;;7.53;4.43;;;;;;;17.98;66.62;101952.97;5226181;28;19909;-86
2021/05/20 10:53:45;;;;;;;9.32;3.35;;;;;;;18.29;69.12;101943.75;5227024;28;20028;-86
2021/05/20 10:56:16;;;;;;;7.68;3.45;;;;;;;17.85;65.66;101940.06;5218731;28;20029;-87
2021/05/20 10:58:47;;;;;;;5.65;3.03;;;;;;;17.93;73.63;101932.88;5210362;28;20033;-87
2021/05/20 11:01:21;;;;;;;5.70;3.20;;;;;;;18.19;70.64;101929.66;5224689;28;20021;-87
2021/05/20 11:03:55;;;;;;;7.63;2.33;;;;;;;17.72;66.27;101939.84;5225760;28;20476;-87
2021/05/20 11:06:35;;;;;;;5.57;2.33;;;;;;;17.91;66.84;101930.31;5225031;28;20021;-86
2021/05/20 11:09:07;;;;;;;6.70;2.25;;;;;;;17.86;65.08;101922.72;5224401;28;20271;-86
2021/05/20 11:11:37;;;;;;;4.13;2.40;;;;;;;17.78;66.27;101916.59;5225557;28;20036;-86
2021/05/20 11:14:14;;;;;;;6.80;3.42;;;;;;;17.33;66.17;101915.69;5226664;28;20025;-86
2021/05/20 11:16:45;;;;;;;5.03;3.15;;;;;;;17.86;68.00;101908.31;5225604;28;20025;-86
2021/05/20 11:19:23;;;;;;;5.07;3.10;;;;;;;17.58;66.22;101908.97;5225170;28;20484;-86
2021/05/20 11:24:34;;;;;;;6.55;2.50;;;;;;;17.45;67.82;101902.50;5225501;28;20061;-86
2021/05/20 11:27:09;;;;;;;4.72;2.55;;;;;;;18.02;65.38;101900.00;5225866;28;20047;-85
2021/05/20 11:29:42;;;;;;;6.43;3.15;;;;;;;17.95;68.80;101899.06;5225305;28;20021;-86
2021/05/20 11:35:03;;;;;;;5.13;3.25;;;;;;;18.13;64.76;101895.94;5225110;28;20029;-85
2021/05/20 11:37:37;;;;;;;;;;;;;;;18.53;64.53;101897.22;5226127;28;20032;-85
2021/05/20 11:40:32;;;;;;;10.15;3.75;;;;;;;18.51;64.01;101899.28;5225236;28;19915;-86